Time;durP1;ratioP1;P1;durP2;ratioP2;P2;SDS_P1;SDS_P2;PMS_P1;PMS_P2;Temp;Humidity;BMP_temperature;BMP_pressure;BME280_temperature;BME280_humidity;BME280_pressure;Samples;Min_cycle;Max_cycle;Signal;HPM_P1;HPM_P2
2023/02/11 05:00:41;;;;;;;45.20;23.52;;;-0.20;84.90;;;;;;1973875;73;25715;-58
2023/02/11 05:03:10;;;;;;;45.33;22.15;;;-0.30;85.30;;;;;;1949137;73;21505;-58
2023/02/11 05:05:40;;;;;;;42.78;23.52;;;-0.30;85.50;;;;;;1949229;73;21089;-58
2023/02/11 05:08:10;;;;;;;45.95;22.15;;;-0.10;85.60;;;;;;1949229;73;20979;-58
2023/02/11 05:10:39;;;;;;;55.40;24.10;;;0.00;85.60;;;;;;1949236;73;21003;-58
2023/02/11 05:13:08;;;;;;;43.20;20.85;;;0.00;85.20;;;;;;1949347;73;21068;-59
2023/02/11 05:15:37;;;;;;;48.87;21.48;;;0.00;85.30;;;;;;1949032;73;21096;-59
2023/02/11 05:18:06;;;;;;;39.73;21.65;;;0.10;85.50;;;;;;1949059;73;21437;-58
2023/02/11 05:20:36;;;;;;;46.45;23.05;;;0.20;85.60;;;;;;1949113;73;21027;-59
2023/02/11 05:23:05;;;;;;;43.45;24.15;;;0.20;85.50;;;;;;1949094;73;21484;-58
2023/02/11 05:25:35;;;;;;;45.73;23.02;;;0.30;85.50;;;;;;1949125;73;20979;-58
2023/02/11 05:28:04;;;;;;;43.98;22.90;;;0.40;85.10;;;;;;1949107;73;21030;-58
2023/02/11 05:30:34;;;;;;;45.50;23.90;;;0.30;85.30;;;;;;1949123;73;21007;-58
2023/02/11 05:33:03;;;;;;;37.33;21.40;;;0.30;84.80;;;;;;1949172;73;21123;-58
2023/02/11 05:35:32;;;;;;;41.25;20.17;;;0.30;85.20;;;;;;1949128;73;21104;-58
2023/02/11 05:38:01;;;;;;;43.92;24.60;;;0.30;85.40;;;;;;1949421;73;21023;-58
2023/02/11 05:40:30;;;;;;;40.92;22.80;;;0.30;85.40;;;;;;1949322;73;20987;-58
2023/02/11 05:42:59;;;;;;;39.92;22.20;;;0.30;84.80;;;;;;1949340;73;21497;-58
2023/02/11 05:45:28;;;;;;;40.10;21.33;;;0.40;85.30;;;;;;1949300;73;21085;-59
2023/02/11 05:47:57;;;;;;;40.08;20.37;;;0.40;85.30;;;;;;1949316;73;21081;-58
2023/02/11 05:50:26;;;;;;;39.55;21.48;;;0.50;85.60;;;;;;1949310;73;21081;-58
2023/02/11 05:52:55;;;;;;;44.25;23.05;;;0.60;85.30;;;;;;1949292;73;21039;-58
2023/02/11 05:55:24;;;;;;;42.40;22.45;;;0.60;85.10;;;;;;1949391;73;21076;-58
2023/02/11 05:57:53;;;;;;;49.00;26.77;;;0.60;85.00;;;;;;1949144;73;21069;-58
2023/02/11 06:00:22;;;;;;;48.30;25.50;;;0.60;85.10;;;;;;1945969;73;21043;-58
2023/02/11 06:02:51;;;;;;;43.65;23.57;;;0.60;84.40;;;;;;1943946;74;21446;-58
2023/02/11 06:05:20;;;;;;;46.20;23.60;;;0.50;83.60;;;;;;1943940;74;21018;-58
2023/02/11 06:07:49;;;;;;;50.20;26.70;;;0.40;84.30;;;;;;1943849;73;21039;-58
2023/02/11 06:10:19;;;;;;;41.33;23.90;;;0.40;85.10;;;;;;1943730;74;21003;-58
2023/02/11 06:12:48;;;;;;;51.15;24.27;;;0.50;85.30;;;;;;1943405;74;21007;-58
2023/02/11 06:15:17;;;;;;;39.95;22.85;;;0.50;84.90;;;;;;1943313;74;21019;-58
2023/02/11 06:17:46;;;;;;;47.35;24.47;;;0.50;83.70;;;;;;1943225;74;21065;-58
2023/02/11 06:20:15;;;;;;;50.67;21.97;;;0.40;84.10;;;;;;1943278;74;21511;-58
2023/02/11 06:22:44;;;;;;;47.48;23.05;;;0.40;84.80;;;;;;1943320;74;21027;-57
2023/02/11 06:25:13;;;;;;;44.18;22.50;;;0.40;84.90;;;;;;1943278;74;21007;-58
2023/02/11 06:27:42;;;;;;;43.63;20.88;;;0.50;84.90;;;;;;1943251;74;20999;-58
2023/02/11 06:30:12;;;;;;;45.30;20.80;;;0.50;85.30;;;;;;1943345;74;21031;-58
2023/02/11 06:32:41;;;;;;;38.88;22.37;;;0.60;84.60;;;;;;1943224;74;20995;-58
2023/02/11 06:35:10;;;;;;;40.67;21.82;;;0.70;84.80;;;;;;1943297;74;21023;-58
2023/02/11 06:37:39;;;;;;;38.85;20.62;;;0.80;84.80;;;;;;1943333;74;21034;-58
2023/02/11 06:40:09;;;;;;;38.75;19.85;;;0.80;84.90;;;;;;1943290;74;21112;-57
2023/02/11 06:42:38;;;;;;;39.10;19.75;;;1.00;84.50;;;;;;1943293;74;21470;-57
2023/02/11 06:45:09;;;;;;;32.42;16.97;;;1.10;84.60;;;;;;1943291;74;21073;-57
2023/02/11 06:47:39;;;;;;;32.98;17.48;;;1.10;83.70;;;;;;1943307;74;20983;-57
2023/02/11 06:50:10;;;;;;;36.42;18.67;;;1.10;83.30;;;;;;1943247;74;21064;-57
2023/02/11 06:52:39;;;;;;;31.23;15.80;;;1.10;83.70;;;;;;1943287;74;21003;-57
2023/02/11 06:55:08;;;;;;;27.20;15.58;;;1.10;83.30;;;;;;1943267;73;21035;-57
2023/02/11 06:57:37;;;;;;;34.35;17.07;;;1.10;82.90;;;;;;1943212;74;21082;-57
2023/02/11 07:00:07;;;;;;;29.02;16.27;;;1.10;82.60;;;;;;1941690;74;21265;-58
2023/02/11 07:02:36;;;;;;;31.00;15.95;;;1.10;83.10;;;;;;1935873;74;21019;-57
2023/02/11 07:05:07;;;;;;;31.30;17.27;;;1.20;83.80;;;;;;1935900;74;20979;-57
2023/02/11 07:07:36;;;;;;;33.25;18.02;;;1.20;83.90;;;;;;1935872;74;21012;-58
2023/02/11 07:10:05;;;;;;;29.72;17.37;;;1.30;82.60;;;;;;1935781;74;21015;-58
2023/02/11 07:12:34;;;;;;;34.00;17.27;;;1.30;83.00;;;;;;1935894;74;21559;-58
2023/02/11 07:15:04;;;;;;;35.03;16.25;;;1.30;82.70;;;;;;1935610;74;21473;-57
2023/02/11 07:17:34;;;;;;;30.43;15.20;;;1.40;83.30;;;;;;1935662;74;21106;-58
2023/02/11 07:20:03;;;;;;;35.20;18.50;;;1.40;83.10;;;;;;1935696;74;21065;-57
2023/02/11 07:22:33;;;;;;;31.87;17.67;;;1.50;83.10;;;;;;1935704;74;21057;-58
2023/02/11 07:25:03;;;;;;;35.08;16.70;;;1.50;81.90;;;;;;1935631;74;20984;-58
2023/02/11 07:27:32;;;;;;;43.10;19.87;;;1.50;81.70;;;;;;1935627;74;21084;-58
2023/02/11 07:30:01;;;;;;;36.17;18.15;;;1.40;81.50;;;;;;1935754;74;21047;-58
2023/02/11 07:32:30;;;;;;;33.35;17.82;;;1.40;82.30;;;;;;1935772;74;21434;-58
2023/02/11 07:34:59;;;;;;;35.60;18.52;;;1.40;81.40;;;;;;1935695;74;21092;-58
2023/02/11 07:37:28;;;;;;;32.90;16.48;;;1.30;81.20;;;;;;1935875;74;20983;-57
2023/02/11 07:39:57;;;;;;;35.95;19.10;;;1.30;81.70;;;;;;1935689;74;21007;-58
2023/02/11 07:42:26;;;;;;;33.48;18.45;;;1.30;82.30;;;;;;1935614;74;21043;-57
2023/02/11 07:44:55;;;;;;;36.63;18.40;;;1.30;81.70;;;;;;1935731;74;21043;-58
2023/02/11 07:47:24;;;;;;;31.17;18.30;;;1.30;81.70;;;;;;1935777;74;21058;-57
2023/02/11 07:49:53;;;;;;;35.60;17.25;;;1.20;79.90;;;;;;1935775;74;21031;-58
2023/02/11 07:52:22;;;;;;;31.82;16.85;;;1.20;81.30;;;;;;1935784;74;21039;-58
2023/02/11 07:54:52;;;;;;;30.85;15.65;;;1.20;82.20;;;;;;1935676;74;21027;-58
2023/02/11 07:57:20;;;;;;;26.97;15.48;;;1.20;82.30;;;;;;1935564;74;21003;-58
2023/02/11 07:59:49;;;;;;;26.73;15.55;;;1.30;82.70;;;;;;1935905;74;21007;-58
2023/02/11 08:02:18;;;;;;;33.05;17.52;;;1.40;82.10;;;;;;1935959;73;21019;-58
2023/02/11 08:04:48;;;;;;;29.92;15.83;;;1.50;81.70;;;;;;1935832;74;21431;-58
2023/02/11 08:07:18;;;;;;;40.98;18.05;;;1.60;80.60;;;;;;1935821;74;21093;-57
2023/02/11 08:09:47;;;;;;;34.00;16.77;;;1.60;81.60;;;;;;1935951;74;21008;-58
2023/02/11 08:12:16;;;;;;;30.40;17.17;;;1.60;82.10;;;;;;1935627;74;21039;-58
2023/02/11 08:14:45;;;;;;;34.43;18.10;;;1.70;81.50;;;;;;1935627;74;21042;-57
2023/02/11 08:17:14;;;;;;;30.35;17.73;;;1.70;81.90;;;;;;1935557;74;21141;-58
2023/02/11 08:19:44;;;;;;;29.25;17.90;;;1.80;80.20;;;;;;1935664;74;21011;-58
2023/02/11 08:22:13;;;;;;;33.30;16.93;;;1.70;79.40;;;;;;1935697;74;21073;-57
2023/02/11 08:24:42;;;;;;;31.97;18.17;;;1.70;80.80;;;;;;1935613;74;21024;-58
2023/02/11 08:27:11;;;;;;;33.75;18.15;;;1.80;81.80;;;;;;1935701;74;21008;-57
2023/02/11 08:29:40;;;;;;;34.60;17.82;;;1.90;82.50;;;;;;1935656;74;21097;-58
2023/02/11 08:32:09;;;;;;;37.80;19.90;;;2.00;82.20;;;;;;1935555;74;21081;-58
2023/02/11 08:34:39;;;;;;;41.88;17.87;;;2.20;82.40;;;;;;1935681;74;21007;-58
2023/02/11 08:37:08;;;;;;;31.07;16.23;;;2.30;82.20;;;;;;1935546;74;21092;-58
2023/02/11 08:39:37;;;;;;;28.30;14.70;;;2.40;80.90;;;;;;1935693;74;21035;-57
2023/02/11 08:42:06;;;;;;;37.17;18.10;;;2.50;81.10;;;;;;1935638;74;21105;-58
2023/02/11 08:44:35;;;;;;;33.58;15.90;;;2.50;81.10;;;;;;1935601;74;21100;-58
2023/02/11 08:47:04;;;;;;;24.57;12.65;;;2.60;80.60;;;;;;1935718;74;21348;-58
2023/02/11 08:49:34;;;;;;;27.13;13.45;;;2.70;79.60;;;;;;1935629;74;21523;-58
2023/02/11 08:52:03;;;;;;;30.55;14.70;;;2.70;80.00;;;;;;1935693;74;21085;-58
2023/02/11 08:54:32;;;;;;;27.55;15.65;;;2.70;80.00;;;;;;1935701;74;21011;-58
2023/02/11 08:57:02;;;;;;;37.03;15.13;;;2.70;78.70;;;;;;1935535;74;21003;-57
2023/02/11 08:59:30;;;;;;;25.85;12.75;;;2.70;79.30;;;;;;1935619;74;21030;-57
2023/02/11 09:01:59;;;;;;;27.80;15.23;;;2.70;77.60;;;;;;1941201;74;21047;-58
2023/02/11 09:04:29;;;;;;;28.95;13.75;;;2.70;77.70;;;;;;1948629;74;21018;-58
2023/02/11 09:06:58;;;;;;;23.12;12.07;;;2.70;79.20;;;;;;1948598;74;21097;-58
2023/02/11 09:09:27;;;;;;;24.92;11.65;;;2.70;77.60;;;;;;1948703;74;21080;-58
2023/02/11 09:11:56;;;;;;;20.35;11.28;;;2.80;78.50;;;;;;1948637;74;21030;-58
2023/02/11 09:14:25;;;;;;;25.62;12.95;;;2.70;77.90;;;;;;1948799;74;21047;-58
2023/02/11 09:16:54;;;;;;;24.85;13.35;;;2.70;78.70;;;;;;1948611;74;21383;-58
2023/02/11 09:19:23;;;;;;;27.45;13.13;;;2.80;77.40;;;;;;1948927;74;21108;-58
2023/02/11 09:21:53;;;;;;;24.18;14.38;;;2.70;76.40;;;;;;1948699;74;21203;-58
2023/02/11 09:24:22;;;;;;;27.67;13.93;;;2.60;77.90;;;;;;1948974;74;21010;-58
2023/02/11 09:26:51;;;;;;;26.00;14.13;;;2.70;79.20;;;;;;1948820;74;21429;-57
2023/02/11 09:29:20;;;;;;;29.05;13.38;;;2.80;79.10;;;;;;1948836;74;21429;-58
2023/02/11 09:31:49;;;;;;;25.35;11.78;;;2.90;79.40;;;;;;1948933;74;21031;-58
2023/02/11 09:34:18;;;;;;;27.42;14.20;;;3.00;76.80;;;;;;1948679;74;21109;-58
2023/02/11 09:36:47;;;;;;;20.00;11.73;;;3.10;78.80;;;;;;1948657;74;21042;-58
2023/02/11 09:39:18;;;;;;;20.95;11.28;;;3.20;77.70;;;;;;1948580;74;21007;-59
2023/02/11 09:42:13;;;;;;;21.12;11.60;;;3.20;77.90;;;;;;1948645;74;21015;-58
2023/02/11 09:44:44;;;;;;;22.95;11.68;;;3.30;78.30;;;;;;1948759;73;21018;-58
2023/02/11 09:47:25;;;;;;;14.40;8.48;;;3.30;75.20;;;;;;1948762;74;20995;-58
2023/02/11 09:50:03;;;;;;;12.00;6.95;;;3.30;73.80;;;;;;1948897;74;21092;-58
2023/02/11 09:52:40;;;;;;;18.32;10.50;;;3.10;71.90;;;;;;1943810;74;21469;-58
2023/02/11 09:55:32;;;;;;;22.15;11.12;;;3.00;73.20;;;;;;1948743;73;21040;-58
2023/02/11 09:58:13;;;;;;;22.50;11.55;;;2.90;74.40;;;;;;1948901;74;21433;-58
2023/02/11 10:01:04;;;;;;;17.55;9.75;;;2.80;74.10;;;;;;1946957;74;21042;-58
2023/02/11 10:03:42;;;;;;;15.63;9.70;;;2.80;73.80;;;;;;1948701;74;21104;-58
2023/02/11 10:06:18;;;;;;;18.32;9.68;;;2.80;75.60;;;;;;1947902;73;21096;-58
2023/02/11 10:09:21;;;;;;;23.73;11.53;;;2.90;75.00;;;;;;1948889;74;21100;-58
2023/02/11 10:12:12;;;;;;;20.60;11.05;;;2.90;73.40;;;;;;1948635;74;21018;-58
2023/02/11 10:14:55;;;;;;;19.77;11.93;;;2.90;71.30;;;;;;1948757;74;21453;-57
2023/02/11 10:18:01;;;;;;;19.20;10.45;;;2.90;74.20;;;;;;1948713;73;20995;-58
2023/02/11 10:20:35;;;;;;;21.60;10.72;;;3.00;75.30;;;;;;1948893;74;21014;-58
2023/02/11 10:23:19;;;;;;;17.87;10.90;;;3.00;74.70;;;;;;1948923;73;21027;-58
2023/02/11 10:25:53;;;;;;;17.12;9.75;;;3.10;74.80;;;;;;1947668;74;21019;-58
2023/02/11 10:28:24;;;;;;;16.97;8.70;;;3.20;72.60;;;;;;1948784;73;20995;-58
2023/02/11 10:31:08;;;;;;;12.70;6.87;;;3.20;70.20;;;;;;1948466;74;21096;-58
2023/02/11 10:33:58;;;;;;;17.40;9.93;;;3.10;68.20;;;;;;1946967;73;21062;-58
2023/02/11 10:36:32;;;;;;;19.00;10.75;;;2.90;69.70;;;;;;1948763;74;21505;-58
2023/02/11 10:39:04;;;;;;;19.55;9.78;;;2.80;70.10;;;;;;1948868;74;21813;-58
2023/02/11 10:41:38;;;;;;;23.75;12.53;;;2.80;69.80;;;;;;1947431;74;21132;-58
2023/02/11 10:44:07;;;;;;;10.25;5.37;;;2.80;72.70;;;;;;1948988;74;21019;-58
2023/02/11 10:46:38;;;;;;;8.95;5.97;;;2.90;67.00;;;;;;1948721;73;21488;-57
2023/02/11 10:49:08;;;;;;;17.50;8.93;;;2.70;62.60;;;;;;1948741;73;21071;-58
2023/02/11 10:51:36;;;;;;;15.98;8.35;;;2.60;69.30;;;;;;1948781;73;21022;-59
2023/02/11 10:54:13;;;;;;;18.00;9.68;;;2.50;68.10;;;;;;1949045;73;21113;-58
2023/02/11 10:56:52;;;;;;;13.20;9.55;;;2.60;72.10;;;;;;1947430;73;21104;-58
2023/02/11 10:59:26;;;;;;;16.35;9.08;;;2.70;69.60;;;;;;1947205;74;21019;-58
2023/02/11 11:02:01;;;;;;;23.42;11.10;;;2.70;66.90;;;;;;1948686;74;21317;-58
2023/02/11 11:04:38;;;;;;;12.98;7.95;;;2.70;70.10;;;;;;1948539;74;21030;-58
2023/02/11 11:07:19;;;;;;;16.12;8.40;;;2.70;69.20;;;;;;1948737;73;21084;-58
2023/02/11 11:09:54;;;;;;;16.32;8.90;;;2.70;65.70;;;;;;1948768;74;21034;-58
2023/02/11 11:12:48;;;;;;;21.10;10.68;;;2.60;67.80;;;;;;1947392;74;21144;-58
2023/02/11 11:15:25;;;;;;;18.17;10.18;;;2.50;67.70;;;;;;1948854;74;21072;-58
2023/02/11 11:18:15;;;;;;;23.92;12.23;;;2.50;66.10;;;;;;1948705;74;21010;-58
2023/02/11 11:20:59;;;;;;;19.25;9.78;;;2.30;67.50;;;;;;1948815;74;22255;-58
2023/02/11 11:23:30;;;;;;;17.90;8.95;;;2.30;67.50;;;;;;1948995;73;21002;-57
2023/02/11 11:26:15;;;;;;;17.52;10.63;;;2.40;69.50;;;;;;1947376;74;21034;-58
2023/02/11 11:29:05;;;;;;;11.00;7.60;;;2.40;68.10;;;;;;1948721;74;21080;-58
2023/02/11 11:31:37;;;;;;;13.88;7.72;;;2.40;67.30;;;;;;1948216;74;21039;-58
2023/02/11 11:34:21;;;;;;;12.55;6.20;;;2.40;68.30;;;;;;1948883;74;21058;-58
2023/02/11 11:36:50;;;;;;;8.75;6.65;;;2.50;67.10;;;;;;1948684;73;21038;-58
2023/02/11 11:39:24;;;;;;;13.55;8.93;;;2.50;65.30;;;;;;1948688;74;21010;-59
2023/02/11 11:41:56;;;;;;;15.70;9.90;;;2.40;68.50;;;;;;1948860;74;21018;-59
2023/02/11 11:44:28;;;;;;;10.90;5.83;;;2.50;68.80;;;;;;1948410;74;21104;-59
2023/02/11 11:47:21;;;;;;;13.05;5.75;;;2.50;66.20;;;;;;1948930;74;21002;-58
2023/02/11 11:50:07;;;;;;;13.48;7.05;;;2.50;66.90;;;;;;1947722;74;21402;-58
2023/02/11 11:52:45;;;;;;;12.68;6.85;;;2.60;65.60;;;;;;1949016;73;21053;-58
2023/02/11 11:55:23;;;;;;;11.15;5.83;;;2.60;65.30;;;;;;1946599;74;21096;-59
2023/02/11 11:57:52;;;;;;;14.78;8.65;;;2.60;64.00;;;;;;1948120;74;21113;-58
2023/02/11 12:00:36;;;;;;;18.52;9.70;;;2.60;66.20;;;;;;1948819;74;20995;-58
2023/02/11 12:03:25;;;;;;;16.27;8.53;;;2.60;68.00;;;;;;1944851;74;21019;-58
2023/02/11 12:06:26;;;;;;;20.05;10.25;;;2.70;68.90;;;;;;1914107;74;21120;-57
2023/02/11 12:09:09;;;;;;;27.37;10.45;;;2.80;67.60;;;;;;1935135;74;21454;-57
2023/02/11 12:11:47;;;;;;;18.05;9.50;;;2.90;69.10;;;;;;1935794;74;21039;-57
2023/02/11 12:14:22;;;;;;;17.40;9.43;;;2.90;65.60;;;;;;1935847;74;21124;-57
2023/02/11 12:17:09;;;;;;;19.65;10.13;;;2.80;66.40;;;;;;1935733;74;21043;-57
2023/02/11 12:19:46;;;;;;;16.17;9.08;;;2.80;67.70;;;;;;1935107;74;21035;-57
2023/02/11 12:22:20;;;;;;;13.60;7.97;;;2.80;68.10;;;;;;1935803;74;21035;-58
2023/02/11 12:24:58;;;;;;;15.80;8.20;;;2.80;66.40;;;;;;1934505;74;21080;-57
2023/02/11 12:27:51;;;;;;;17.25;10.23;;;2.80;64.80;;;;;;1935774;74;21090;-57
2023/02/11 12:30:28;;;;;;;17.85;9.08;;;2.70;67.90;;;;;;1935628;74;21098;-57
2023/02/11 12:33:00;;;;;;;18.98;10.95;;;2.70;67.20;;;;;;1884341;74;21061;-57
2023/02/11 12:35:41;;;;;;;18.02;10.40;;;2.70;67.00;;;;;;1934841;74;21450;-57
2023/02/11 12:38:14;;;;;;;20.52;7.85;;;2.80;68.00;;;;;;1935852;74;21109;-57
2023/02/11 12:40:52;;;;;;;13.93;8.08;;;2.80;67.00;;;;;;1935791;74;21023;-57
2023/02/11 12:43:30;;;;;;;15.83;8.68;;;2.80;66.40;;;;;;1935722;74;21027;-58
2023/02/11 12:46:08;;;;;;;18.02;10.18;;;2.70;66.80;;;;;;1934831;74;21105;-57
2023/02/11 12:48:58;;;;;;;19.67;10.58;;;2.70;67.80;;;;;;1935478;74;21468;-57
2023/02/11 12:51:56;;;;;;;20.55;11.95;;;2.60;67.50;;;;;;1935662;74;21043;-57
2023/02/11 12:54:39;;;;;;;16.52;9.43;;;2.60;68.30;;;;;;1935663;74;21097;-57
2023/02/11 12:57:19;;;;;;;22.15;10.28;;;2.60;67.50;;;;;;1935823;74;21035;-57
2023/02/11 12:59:55;;;;;;;16.27;10.18;;;2.50;68.60;;;;;;1935807;74;21015;-57
2023/02/11 13:02:39;;;;;;;15.90;8.88;;;2.50;67.90;;;;;;1935565;74;21059;-57
2023/02/11 13:05:31;;;;;;;14.05;7.53;;;2.50;69.10;;;;;;1935758;73;21039;-57
2023/02/11 13:08:21;;;;;;;15.75;8.73;;;2.60;69.40;;;;;;1934808;74;21046;-57
2023/02/11 13:10:55;;;;;;;14.98;7.83;;;2.60;68.70;;;;;;1935703;74;21082;-58
2023/02/11 13:13:26;;;;;;;11.08;5.92;;;2.60;68.30;;;;;;1935703;74;20992;-58
2023/02/11 13:16:05;;;;;;;14.18;7.78;;;2.60;67.30;;;;;;1935706;74;21011;-58
2023/02/11 13:19:05;;;;;;;6.78;4.50;;;2.60;67.30;;;;;;1933792;74;20995;-57
2023/02/11 13:21:48;;;;;;;17.05;9.15;;;2.50;64.70;;;;;;1935127;74;21007;-59
2023/02/11 13:24:20;;;;;;;10.70;6.92;;;2.40;67.90;;;;;;1935930;74;21011;-58
2023/02/11 13:27:07;;;;;;;14.63;8.53;;;2.40;68.10;;;;;;1935822;74;20996;-58
2023/02/11 13:30:10;;;;;;;15.53;8.05;;;2.40;68.90;;;;;;1935606;74;21051;-58
2023/02/11 13:33:05;;;;;;;14.58;7.50;;;2.40;69.00;;;;;;1935857;74;21019;-58
2023/02/11 13:35:32;;;;;;;18.52;8.48;;;2.50;69.80;;;;;;1933836;74;21116;-57
2023/02/11 13:38:03;;;;;;;13.03;8.20;;;2.60;69.20;;;;;;1935799;74;21015;-57
2023/02/11 13:40:39;;;;;;;11.20;6.60;;;2.60;69.00;;;;;;1935934;74;21000;-57
2023/02/11 13:43:11;;;;;;;16.45;8.90;;;2.60;69.50;;;;;;1935826;74;21008;-57
2023/02/11 13:45:45;;;;;;;15.25;8.53;;;2.70;70.20;;;;;;1932704;74;21501;-57
2023/02/11 13:48:31;;;;;;;14.50;9.18;;;2.70;69.30;;;;;;1935889;74;21081;-57
2023/02/11 13:51:03;;;;;;;15.13;8.78;;;2.80;69.60;;;;;;1935607;74;21019;-57
2023/02/11 13:53:53;;;;;;;16.62;9.58;;;2.70;70.30;;;;;;1935660;74;20999;-57
2023/02/11 13:56:36;;;;;;;17.45;9.60;;;2.80;71.00;;;;;;1935634;74;20987;-57
2023/02/11 13:59:29;;;;;;;18.17;9.00;;;2.80;70.50;;;;;;1935622;74;21019;-57
2023/02/11 14:11:09;;;;;;;22.13;11.48;;;3.00;70.00;;;;;;1935587;74;21097;-57
2023/02/11 14:13:38;;;;;;;22.87;11.43;;;2.90;69.90;;;;;;1934803;74;21520;-57
2023/02/11 14:16:13;;;;;;;21.00;10.38;;;2.80;70.10;;;;;;1931895;74;21066;-56
2023/02/11 14:18:45;;;;;;;;;;;2.70;70.70;;;;;;1938686;74;21019;-56
2023/02/11 14:21:29;;;;;;;18.20;8.83;;;2.60;71.40;;;;;;1935784;74;20147;-58
2023/02/11 14:24:07;;;;;;;16.07;10.23;;;2.60;71.80;;;;;;1936084;74;21019;-57
2023/02/11 14:27:00;;;;;;;15.80;10.30;;;2.70;72.00;;;;;;1935815;74;20991;-57
2023/02/11 14:29:41;;;;;;;15.65;9.60;;;2.80;72.10;;;;;;1935786;74;21093;-57
2023/02/11 14:32:19;;;;;;;25.08;13.65;;;2.80;72.20;;;;;;1935716;74;21011;-56
2023/02/11 14:35:00;;;;;;;20.35;13.28;;;2.80;72.20;;;;;;1935643;74;21015;-57
2023/02/11 14:37:57;;;;;;;18.57;12.00;;;2.90;72.30;;;;;;1935185;74;21049;-58
2023/02/11 14:40:34;;;;;;;19.70;12.53;;;2.80;72.30;;;;;;1935223;74;21043;-58
2023/02/11 14:43:06;;;;;;;19.57;11.38;;;2.90;72.40;;;;;;1935722;74;21003;-58
2023/02/11 14:45:36;;;;;;;24.85;13.08;;;2.80;72.50;;;;;;1894248;74;21076;-58
2023/02/11 14:48:20;;;;;;;22.22;13.68;;;2.80;72.70;;;;;;1935751;74;21069;-58
2023/02/11 14:51:07;;;;;;;24.75;13.58;;;2.80;72.80;;;;;;1935518;74;21080;-58
2023/02/11 14:53:37;;;;;;;31.97;16.70;;;2.80;72.80;;;;;;1935537;74;21043;-58
2023/02/11 14:56:09;;;;;;;32.00;16.80;;;2.70;73.00;;;;;;1935868;74;21007;-58
2023/02/11 14:58:39;;;;;;;29.23;16.35;;;2.70;73.20;;;;;;1933498;74;21082;-58
2023/02/11 15:01:27;;;;;;;31.57;16.65;;;2.70;73.90;;;;;;1934738;74;21035;-58
2023/02/11 15:03:59;;;;;;;30.80;15.93;;;2.60;73.30;;;;;;1935519;74;21023;-57
2023/02/11 15:06:35;;;;;;;31.82;16.20;;;2.60;73.50;;;;;;1935460;74;21140;-57
2023/02/11 15:09:07;;;;;;;33.05;18.05;;;2.60;73.70;;;;;;1935540;74;21172;-57
2023/02/11 15:11:41;;;;;;;36.17;19.00;;;2.60;73.70;;;;;;1935533;74;21008;-57
2023/02/11 15:14:28;;;;;;;29.77;16.87;;;2.50;73.70;;;;;;1935644;74;21011;-58
2023/02/11 15:17:01;;;;;;;26.12;15.40;;;2.50;73.80;;;;;;1933034;74;21063;-58
2023/02/11 15:19:36;;;;;;;26.15;15.28;;;2.50;74.10;;;;;;1935581;74;21097;-58
2023/02/11 15:22:20;;;;;;;27.37;14.90;;;2.50;74.20;;;;;;1934305;74;21087;-58
2023/02/11 15:25:02;;;;;;;28.02;16.05;;;2.50;74.20;;;;;;1934788;74;20983;-58
2023/02/11 15:27:43;;;;;;;35.35;24.25;;;2.40;74.10;;;;;;1935570;74;21415;-57
2023/02/11 15:30:29;;;;;;;25.55;15.13;;;2.40;74.10;;;;;;1934767;74;21016;-57
2023/02/11 15:33:02;;;;;;;29.87;14.70;;;2.40;74.30;;;;;;1935529;74;21449;-57
2023/02/11 15:35:35;;;;;;;40.23;18.30;;;2.40;74.40;;;;;;1935553;74;21019;-57
2023/02/11 15:38:05;;;;;;;35.17;16.12;;;2.30;74.60;;;;;;1935600;74;21007;-57
2023/02/11 15:40:36;;;;;;;34.58;18.25;;;2.30;74.70;;;;;;1935652;74;20999;-57
2023/02/11 15:43:10;;;;;;;40.17;21.15;;;2.20;74.80;;;;;;1935492;74;21089;-58
2023/02/11 15:45:45;;;;;;;39.25;22.37;;;2.20;74.80;;;;;;1935700;74;21015;-58
2023/02/11 15:48:17;;;;;;;39.95;21.12;;;2.20;74.90;;;;;;1933328;74;21016;-58
2023/02/11 15:50:51;;;;;;;34.73;19.45;;;2.20;75.10;;;;;;1934881;74;21057;-57
2023/02/11 15:53:26;;;;;;;36.73;18.45;;;2.10;75.20;;;;;;1935676;74;21132;-57
2023/02/11 15:56:00;;;;;;;45.38;21.30;;;2.00;75.20;;;;;;1935962;74;22366;-57
2023/02/11 15:58:29;;;;;;;39.20;20.45;;;2.00;75.30;;;;;;1934661;74;21085;-57
2023/02/11 16:00:58;;;;;;;41.05;19.17;;;2.00;75.50;;;;;;1935820;74;21125;-57
2023/02/11 16:03:31;;;;;;;33.78;18.52;;;2.00;75.60;;;;;;1935753;74;21501;-57
2023/02/11 16:06:21;;;;;;;42.85;18.42;;;2.00;75.70;;;;;;1941018;74;21035;-58
2023/02/11 16:09:08;;;;;;;53.52;28.20;;;1.90;75.70;;;;;;1949051;73;21108;-57
2023/02/11 16:11:49;;;;;;;54.38;28.70;;;1.90;75.70;;;;;;1945280;74;21520;-58
2023/02/11 16:14:31;;;;;;;53.55;29.12;;;1.90;75.60;;;;;;1948595;74;21055;-58
2023/02/11 16:17:09;;;;;;;48.68;28.10;;;1.80;75.50;;;;;;1948754;74;21092;-58
2023/02/11 16:19:47;;;;;;;44.58;23.80;;;1.70;75.80;;;;;;1948750;74;21094;-58
2023/02/11 16:22:34;;;;;;;38.45;21.45;;;1.70;75.90;;;;;;1947992;74;21016;-58
2023/02/11 16:25:01;;;;;;;43.60;22.37;;;1.60;76.10;;;;;;1948541;74;21449;-58
2023/02/11 16:27:32;;;;;;;37.05;21.50;;;1.60;76.10;;;;;;1948785;74;21074;-57
2023/02/11 16:30:02;;;;;;;40.92;22.20;;;1.60;75.90;;;;;;1947238;74;21042;-57
2023/02/11 16:32:31;;;;;;;44.67;22.13;;;1.60;76.10;;;;;;1948809;74;21054;-57
2023/02/11 16:35:00;;;;;;;33.53;18.75;;;1.50;76.20;;;;;;1948737;74;21015;-58
2023/02/11 16:37:30;;;;;;;39.00;21.75;;;1.50;76.30;;;;;;1948764;74;21039;-58
2023/02/11 16:39:59;;;;;;;44.98;21.05;;;1.50;76.40;;;;;;1948828;74;20995;-58
2023/02/11 16:42:28;;;;;;;50.05;21.40;;;1.40;76.40;;;;;;1948786;74;21556;-57
2023/02/11 16:44:58;;;;;;;47.30;18.52;;;1.40;76.50;;;;;;1948878;73;21552;-58
2023/02/11 16:47:29;;;;;;;39.90;21.40;;;1.40;76.60;;;;;;1948744;74;21072;-57
2023/02/11 16:50:00;;;;;;;43.25;19.05;;;1.40;76.50;;;;;;1948720;74;20994;-57
2023/02/11 16:52:30;;;;;;;34.75;17.48;;;1.40;76.60;;;;;;1948711;74;21068;-58
2023/02/11 16:54:59;;;;;;;31.25;16.30;;;1.30;76.60;;;;;;1948744;73;21082;-58
2023/02/11 16:57:29;;;;;;;34.90;17.37;;;1.30;76.80;;;;;;1948784;74;21019;-57
2023/02/11 16:59:59;;;;;;;43.13;20.15;;;1.30;77.00;;;;;;1948758;74;21014;-58
2023/02/11 17:02:36;;;;;;;36.55;17.32;;;1.20;76.80;;;;;;1948746;74;21046;-57
2023/02/11 17:05:08;;;;;;;34.65;19.02;;;1.20;76.90;;;;;;1948755;74;21152;-57
2023/02/11 17:07:37;;;;;;;38.80;20.30;;;1.20;77.10;;;;;;1947526;74;21585;-58
2023/02/11 17:10:18;;;;;;;30.57;19.37;;;1.20;77.10;;;;;;1948706;74;21018;-58
2023/02/11 17:12:52;;;;;;;31.15;19.15;;;1.20;77.20;;;;;;1948800;74;20991;-58
2023/02/11 17:15:19;;;;;;;30.25;18.12;;;1.20;77.20;;;;;;1948373;74;21029;-58
2023/02/11 17:17:48;;;;;;;25.90;15.43;;;1.20;77.00;;;;;;1948767;74;21054;-58
2023/02/11 17:20:19;;;;;;;25.15;13.53;;;1.20;76.90;;;;;;1948828;74;21026;-58
2023/02/11 17:22:48;;;;;;;25.27;14.50;;;1.10;76.50;;;;;;1948800;74;21058;-57
2023/02/11 17:25:18;;;;;;;25.12;14.47;;;1.10;76.60;;;;;;1948768;74;21019;-57
2023/02/11 17:27:47;;;;;;;27.67;15.28;;;1.00;76.80;;;;;;1948879;74;21007;-57
2023/02/11 17:30:16;;;;;;;26.82;14.33;;;0.90;77.00;;;;;;1948778;74;21015;-58
2023/02/11 17:32:46;;;;;;;39.35;18.15;;;0.90;77.20;;;;;;1948765;74;21035;-57
2023/02/11 17:35:15;;;;;;;24.37;16.32;;;0.90;77.30;;;;;;1948703;74;21034;-58
2023/02/11 17:37:44;;;;;;;30.92;18.10;;;0.90;77.40;;;;;;1948777;74;21019;-58
2023/02/11 17:40:15;;;;;;;35.95;18.95;;;1.00;77.40;;;;;;1948816;74;21011;-58
2023/02/11 17:42:44;;;;;;;37.08;20.92;;;1.00;77.50;;;;;;1948735;74;21127;-58
2023/02/11 17:45:13;;;;;;;38.23;20.27;;;1.00;77.40;;;;;;1948854;74;21469;-58
2023/02/11 17:47:43;;;;;;;33.38;18.50;;;1.00;77.30;;;;;;1948855;74;20999;-58
2023/02/11 17:50:12;;;;;;;39.03;21.05;;;0.90;77.50;;;;;;1948685;74;21055;-58
2023/02/11 17:52:42;;;;;;;36.42;21.30;;;0.90;77.50;;;;;;1948864;74;21110;-58
2023/02/11 17:55:11;;;;;;;38.23;21.17;;;0.90;77.40;;;;;;1948790;74;21003;-58
2023/02/11 17:57:39;;;;;;;32.65;18.80;;;0.90;77.50;;;;;;1948982;74;21002;-58
2023/02/11 18:00:10;;;;;;;34.03;18.25;;;0.90;77.40;;;;;;1948792;74;21536;-58
2023/02/11 18:02:41;;;;;;;32.53;18.87;;;0.90;77.50;;;;;;1949100;74;21482;-58
2023/02/11 18:05:10;;;;;;;30.27;16.27;;;0.80;77.40;;;;;;1948771;74;21007;-58
2023/02/11 18:07:39;;;;;;;37.73;19.32;;;0.80;77.50;;;;;;1948936;73;21155;-58
2023/02/11 18:10:10;;;;;;;35.80;20.10;;;0.80;77.90;;;;;;1949022;74;21082;-58
2023/02/11 18:12:39;;;;;;;28.40;17.27;;;0.70;77.30;;;;;;1949024;74;21031;-58
2023/02/11 18:15:08;;;;;;;36.23;18.32;;;0.70;77.50;;;;;;1949067;73;20983;-58
2023/02/11 18:17:37;;;;;;;35.30;17.00;;;0.60;77.50;;;;;;1948969;73;21019;-58
2023/02/11 18:20:08;;;;;;;27.15;14.68;;;0.60;77.60;;;;;;1948978;74;21089;-58
2023/02/11 18:22:39;;;;;;;30.75;16.70;;;0.50;77.50;;;;;;1949024;73;21039;-58